createdAt,value
2022-08-23T00:01:35.259Z,26.30
2022-08-23T00:04:08.688Z,26.30
2022-08-23T00:06:40.461Z,26.40
2022-08-23T00:09:08.558Z,26.30
2022-08-23T00:11:42.931Z,26.30
2022-08-23T00:14:15.002Z,26.20
2022-08-23T00:16:42.514Z,26.10
2022-08-23T00:19:13.083Z,26.10
2022-08-23T00:21:41.778Z,26.60
2022-08-23T00:24:11.984Z,26.10
2022-08-23T00:27:15.916Z,26.00
2022-08-23T00:29:47.206Z,26.00
2022-08-23T00:32:18.495Z,26.30
2022-08-23T00:34:45.843Z,26.00
2022-08-23T00:37:13.790Z,26.00
2022-08-23T00:39:41.478Z,26.00
2022-08-23T00:42:59.032Z,25.90
2022-08-23T00:45:56.582Z,25.90
2022-08-23T00:48:24.150Z,25.80
2022-08-23T00:50:57.504Z,25.80
2022-08-23T00:53:31.926Z,25.80
2022-08-23T00:56:03.235Z,26.20
2022-08-23T00:58:30.703Z,26.20
2022-08-23T01:01:01.056Z,25.90
2022-08-23T01:03:38.975Z,25.50
2022-08-23T01:06:35.794Z,25.50
2022-08-23T01:09:09.040Z,25.50
2022-08-23T01:12:01.616Z,25.50
2022-08-23T01:14:43.528Z,25.70
2022-08-23T01:17:21.859Z,25.40
2022-08-23T01:19:56.255Z,25.40
2022-08-23T01:22:36.993Z,25.40
2022-08-23T01:25:09.286Z,25.50
2022-08-23T01:27:42.680Z,25.30
2022-08-23T01:30:17.027Z,25.30
2022-08-23T01:32:47.744Z,25.30
2022-08-23T01:35:16.727Z,25.30
2022-08-23T01:37:44.893Z,25.20
2022-08-23T01:40:13.075Z,25.80
2022-08-23T01:42:41.620Z,25.30
2022-08-23T01:45:11.824Z,25.10
2022-08-23T01:47:40.790Z,25.20
2022-08-23T01:50:11.230Z,25.10
2022-08-23T01:52:47.174Z,25.10
2022-08-23T01:55:26.722Z,25.00
2022-08-23T01:57:57.663Z,25.00
2022-08-23T02:00:30.150Z,24.90
2022-08-23T02:02:59.266Z,24.90
2022-08-23T02:05:28.110Z,24.90
2022-08-23T02:07:55.798Z,24.80
2022-08-23T02:10:23.293Z,24.80
2022-08-23T02:12:51.986Z,24.80
2022-08-23T02:15:22.112Z,24.70
2022-08-23T02:17:49.893Z,25.30
2022-08-23T02:20:17.306Z,25.10
2022-08-23T02:22:44.698Z,24.60
2022-08-23T02:25:12.344Z,24.50
2022-08-23T02:27:42.948Z,24.50
2022-08-23T02:30:14.030Z,24.50
2022-08-23T02:32:42.137Z,24.70
2022-08-23T02:35:10.649Z,24.40
2022-08-23T02:37:38.158Z,24.40
2022-08-23T02:40:07.146Z,25.10
2022-08-23T02:42:35.166Z,24.40
2022-08-23T02:45:03.514Z,24.40
2022-08-23T02:47:33.143Z,24.40
2022-08-23T02:50:14.525Z,24.30
2022-08-23T02:52:42.009Z,24.20
2022-08-23T02:55:10.063Z,24.60
2022-08-23T02:57:39.507Z,24.10
2022-08-23T03:00:10.193Z,24.40
2022-08-23T03:02:39.011Z,24.10
2022-08-23T03:05:08.454Z,24.10
2022-08-23T03:07:36.492Z,24.10
2022-08-23T03:10:05.718Z,24.00
2022-08-23T03:12:35.211Z,24.00
2022-08-23T03:15:03.942Z,24.00
2022-08-23T03:17:33.555Z,23.90
2022-08-23T03:20:02.233Z,23.90
2022-08-23T03:22:32.236Z,23.90
2022-08-23T03:24:59.761Z,23.80
2022-08-23T03:27:44.572Z,23.80
2022-08-23T03:30:15.523Z,24.40
2022-08-23T03:32:49.273Z,23.70
2022-08-23T03:35:17.698Z,24.10
2022-08-23T03:37:45.234Z,23.60
2022-08-23T03:40:14.085Z,23.60
2022-08-23T03:42:41.482Z,23.50
2022-08-23T03:45:09.184Z,23.50
2022-08-23T03:47:36.592Z,23.40
2022-08-23T03:50:04.317Z,23.60
2022-08-23T03:52:32.946Z,23.40
2022-08-23T03:55:01.047Z,23.40
2022-08-23T03:57:31.007Z,23.30
2022-08-23T03:59:59.920Z,23.30
2022-08-23T04:02:29.607Z,23.30
2022-08-23T04:04:57.960Z,23.30
2022-08-23T04:07:48.313Z,23.20
2022-08-23T04:10:15.854Z,23.60
2022-08-23T04:12:45.979Z,23.70
2022-08-23T04:15:16.192Z,23.10
2022-08-23T04:17:43.850Z,23.10
2022-08-23T04:20:11.616Z,23.60
2022-08-23T04:22:53.238Z,23.00
2022-08-23T04:25:33.269Z,23.00
2022-08-23T04:28:04.843Z,23.00
2022-08-23T04:30:33.324Z,22.90
2022-08-23T04:33:02.228Z,23.20
2022-08-23T04:35:32.834Z,22.80
2022-08-23T04:38:00.926Z,22.80
2022-08-23T04:40:47.476Z,22.80
2022-08-23T04:43:17.865Z,22.70
2022-08-23T04:45:45.274Z,22.70
2022-08-23T04:48:23.741Z,23.00
2022-08-23T04:50:54.267Z,22.60
2022-08-23T04:53:22.095Z,22.60
2022-08-23T04:55:59.817Z,22.60
2022-08-23T04:58:30.797Z,22.50
2022-08-23T05:01:00.411Z,23.10
2022-08-23T05:03:29.678Z,22.80
2022-08-23T05:05:59.003Z,22.50
2022-08-23T05:08:34.690Z,22.50
2022-08-23T05:11:06.659Z,22.50
2022-08-23T05:13:34.746Z,22.50
2022-08-23T05:16:05.187Z,22.50
2022-08-23T05:18:36.192Z,22.60
2022-08-23T05:21:04.386Z,22.60
2022-08-23T05:23:32.538Z,22.60
2022-08-23T05:26:12.923Z,22.60
2022-08-23T05:28:44.873Z,22.70
2022-08-23T05:31:26.266Z,22.70
2022-08-23T05:33:56.180Z,23.00
2022-08-23T05:36:30.553Z,23.30
2022-08-23T05:38:58.512Z,23.50
2022-08-23T05:41:37.682Z,23.10
2022-08-23T05:44:07.832Z,23.40
2022-08-23T05:46:35.414Z,23.60
2022-08-23T05:49:21.214Z,23.70
2022-08-23T05:51:51.748Z,23.80
2022-08-23T05:54:20.810Z,23.80
2022-08-23T05:57:02.032Z,23.90
2022-08-23T05:59:29.677Z,24.30
2022-08-23T06:01:57.605Z,24.60
2022-08-23T06:04:25.705Z,24.60
2022-08-23T06:06:56.213Z,24.30
2022-08-23T06:09:23.618Z,24.40
2022-08-23T06:11:51.189Z,24.40
2022-08-23T06:14:19.586Z,24.70
2022-08-23T06:16:53.680Z,25.30
2022-08-23T06:19:24.804Z,24.80
2022-08-23T06:22:12.424Z,24.90
2022-08-23T06:24:42.836Z,25.60
2022-08-23T06:27:16.125Z,25.50
2022-08-23T06:29:44.414Z,25.40
2022-08-23T06:32:31.147Z,25.70
2022-08-23T06:35:38.238Z,26.30
2022-08-23T06:38:10.010Z,26.50
2022-08-23T06:41:06.210Z,26.90
2022-08-23T06:43:51.846Z,27.30
2022-08-23T06:46:30.207Z,27.80
2022-08-23T06:48:59.458Z,28.30
2022-08-23T06:51:37.529Z,28.70
2022-08-23T06:54:33.716Z,29.20
2022-08-23T06:57:28.121Z,29.70
2022-08-23T07:00:25.238Z,30.20
2022-08-23T07:03:11.438Z,30.60
2022-08-23T07:05:57.511Z,31.00
2022-08-23T07:08:28.394Z,31.30
2022-08-23T07:10:57.148Z,31.50
2022-08-23T07:13:24.493Z,31.80
2022-08-23T07:15:56.602Z,32.20
2022-08-23T07:18:24.253Z,32.60
2022-08-23T07:20:57.048Z,33.00
2022-08-23T07:23:25.727Z,33.30
2022-08-23T07:25:54.163Z,33.80
2022-08-23T07:28:25.082Z,33.90
2022-08-23T07:30:52.629Z,34.30
2022-08-23T07:33:20.129Z,34.60
2022-08-23T07:36:14.289Z,35.00
2022-08-23T07:38:42.739Z,35.30
2022-08-23T07:41:10.474Z,35.50
2022-08-23T07:43:39.055Z,35.60
2022-08-23T07:46:08.484Z,35.90
2022-08-23T07:48:53.366Z,36.00
2022-08-23T07:51:25.469Z,36.20
2022-08-23T07:53:52.919Z,36.50
2022-08-23T07:56:22.338Z,37.30
2022-08-23T07:59:08.624Z,37.10
2022-08-23T08:01:43.356Z,37.50
2022-08-23T08:04:16.041Z,37.80
2022-08-23T08:07:04.818Z,38.00
2022-08-23T08:09:39.843Z,38.50
2022-08-23T08:12:08.112Z,38.80
2022-08-23T08:14:37.941Z,39.30
2022-08-23T08:17:06.712Z,39.70
2022-08-23T08:19:54.297Z,39.90
2022-08-23T08:22:42.374Z,40.00
2022-08-23T08:25:34.170Z,40.40
2022-08-23T08:28:04.119Z,40.80
2022-08-23T08:30:32.858Z,41.10
2022-08-23T08:33:01.626Z,41.30
2022-08-23T08:35:29.930Z,41.50
2022-08-23T08:37:58.006Z,41.60
2022-08-23T08:40:33.338Z,41.60
2022-08-23T08:43:14.479Z,42.00
2022-08-23T08:46:06.805Z,42.30
2022-08-23T08:48:43.173Z,42.50
2022-08-23T08:51:32.304Z,42.80
2022-08-23T08:54:02.410Z,43.10
2022-08-23T08:56:39.562Z,43.30
2022-08-23T08:59:22.657Z,43.60
2022-08-23T09:01:51.363Z,43.60
2022-08-23T09:04:25.998Z,43.80
2022-08-23T09:07:12.417Z,43.80
2022-08-23T09:09:57.801Z,43.80
2022-08-23T09:12:37.746Z,43.90
2022-08-23T09:15:31.043Z,44.00
2022-08-23T09:18:11.314Z,44.00
2022-08-23T09:20:41.305Z,44.00
2022-08-23T09:23:14.312Z,44.10
2022-08-23T09:25:57.837Z,44.10
2022-08-23T09:28:35.292Z,44.10
2022-08-23T09:31:03.959Z,44.40
2022-08-23T09:33:41.563Z,44.50
2022-08-23T09:36:22.452Z,44.60
2022-08-23T09:38:57.766Z,44.50
2022-08-23T09:41:42.049Z,44.60
2022-08-23T09:44:16.291Z,44.30
2022-08-23T09:46:44.886Z,44.30
2022-08-23T09:49:29.877Z,44.10
2022-08-23T09:52:25.224Z,43.80
2022-08-23T09:55:06.931Z,43.30
2022-08-23T09:57:39.556Z,42.90
2022-08-23T10:00:16.285Z,42.60
2022-08-23T10:02:43.795Z,42.00
2022-08-23T10:05:28.634Z,41.50
2022-08-23T10:08:00.608Z,41.10
2022-08-23T10:10:29.221Z,41.10
2022-08-23T10:13:01.798Z,40.60
2022-08-23T10:15:59.214Z,40.00
2022-08-23T10:18:33.220Z,39.70
2022-08-23T10:21:05.218Z,39.30
2022-08-23T10:24:05.112Z,39.00
2022-08-23T10:26:35.702Z,38.70
2022-08-23T10:29:37.329Z,38.40
2022-08-23T10:32:42.042Z,38.30
2022-08-23T10:35:31.946Z,37.90
2022-08-23T10:38:33.763Z,37.80
2022-08-23T10:41:31.090Z,37.70
2022-08-23T10:44:25.934Z,37.60
2022-08-23T10:47:27.441Z,37.30
2022-08-23T10:49:58.570Z,37.20
2022-08-23T10:52:33.057Z,37.00
2022-08-23T10:55:16.963Z,36.80
2022-08-23T10:57:47.808Z,36.70
2022-08-23T11:00:26.807Z,36.20
2022-08-23T11:03:24.444Z,36.60
2022-08-23T11:06:23.945Z,36.50
2022-08-23T11:09:05.525Z,36.50
2022-08-23T11:12:11.157Z,36.50
2022-08-23T11:14:59.082Z,36.40
2022-08-23T11:17:55.963Z,36.30
2022-08-23T11:20:49.189Z,36.30
2022-08-23T11:23:41.502Z,36.20
2022-08-23T11:26:31.343Z,36.00
2022-08-23T11:29:09.322Z,35.90
2022-08-23T11:31:44.843Z,35.80
2022-08-23T11:34:20.880Z,35.90
2022-08-23T11:37:18.718Z,35.80
2022-08-23T11:39:57.363Z,35.80
2022-08-23T11:42:25.982Z,35.80
2022-08-23T11:44:53.629Z,35.80
2022-08-23T11:47:40.038Z,35.80
2022-08-23T11:50:32.162Z,35.70
2022-08-23T11:53:22.994Z,35.70
2022-08-23T11:56:29.262Z,35.70
2022-08-23T11:59:15.438Z,35.70
2022-08-23T12:01:45.531Z,35.70
2022-08-23T12:04:37.608Z,35.70
2022-08-23T12:07:12.708Z,35.60
2022-08-23T12:09:41.001Z,35.60
2022-08-23T12:12:24.904Z,35.50
2022-08-23T12:14:56.195Z,35.50
2022-08-23T12:17:26.467Z,35.60
2022-08-23T12:20:16.309Z,35.60
2022-08-23T12:22:56.611Z,35.50
2022-08-23T12:25:24.096Z,35.60
2022-08-23T12:27:57.680Z,35.50
2022-08-23T12:30:51.876Z,35.50
2022-08-23T12:34:01.595Z,35.50
2022-08-23T12:37:01.016Z,35.50
2022-08-23T12:39:37.074Z,35.50
2022-08-23T12:42:15.500Z,35.50
2022-08-23T12:44:58.146Z,35.40
2022-08-23T12:47:25.782Z,35.40
2022-08-23T12:49:58.133Z,35.40
2022-08-23T12:52:28.181Z,35.30
2022-08-23T12:54:57.907Z,35.30
2022-08-23T12:57:30.019Z,35.30
2022-08-23T13:00:48.159Z,35.30
2022-08-23T13:03:25.243Z,35.30
2022-08-23T13:06:03.519Z,35.30
2022-08-23T13:08:49.920Z,35.30
2022-08-23T13:11:20.641Z,35.20
2022-08-23T13:13:49.155Z,35.10
2022-08-23T13:16:44.031Z,35.00
2022-08-23T13:19:32.449Z,35.00
2022-08-23T13:22:12.945Z,35.10
2022-08-23T13:24:43.530Z,35.00
2022-08-23T13:27:15.606Z,35.10
2022-08-23T13:30:09.414Z,35.00
2022-08-23T13:32:46.654Z,35.50
2022-08-23T13:35:37.853Z,35.00
2022-08-23T13:38:08.285Z,35.00
2022-08-23T13:40:44.837Z,35.00
2022-08-23T13:43:19.142Z,35.00
2022-08-23T13:45:55.657Z,35.10
2022-08-23T13:48:24.536Z,35.00
2022-08-23T13:50:52.415Z,35.00
2022-08-23T13:53:20.134Z,35.00
2022-08-23T13:55:52.210Z,35.00
2022-08-23T13:58:29.732Z,35.00
2022-08-23T14:01:00.349Z,35.00
2022-08-23T14:03:30.671Z,35.00
2022-08-23T14:05:58.074Z,35.00
2022-08-23T14:08:25.486Z,35.00
2022-08-23T14:10:52.978Z,35.10
2022-08-23T14:13:23.820Z,35.10
2022-08-23T14:15:56.418Z,35.10
2022-08-23T14:18:26.045Z,35.10
2022-08-23T14:20:53.611Z,35.10
2022-08-23T14:23:20.990Z,35.10
2022-08-23T14:25:51.162Z,35.10
2022-08-23T14:28:18.823Z,35.20
2022-08-23T14:30:47.927Z,35.00
2022-08-23T14:33:15.687Z,35.00
2022-08-23T14:35:43.934Z,35.00
2022-08-23T14:38:13.311Z,35.00
2022-08-23T14:40:50.026Z,35.10
2022-08-23T14:43:17.401Z,35.10
2022-08-23T14:45:44.779Z,35.20
2022-08-23T14:48:12.246Z,35.20
2022-08-23T14:50:41.172Z,35.20
2022-08-23T14:53:09.450Z,35.20
2022-08-23T14:55:36.958Z,35.40
2022-08-23T14:58:04.488Z,35.10
2022-08-23T15:00:35.254Z,35.10
2022-08-23T15:03:09.811Z,35.10
2022-08-23T15:05:37.666Z,35.10
2022-08-23T15:08:05.546Z,35.10
2022-08-23T15:13:29.734Z,35.10
2022-08-23T15:16:01.781Z,35.10
2022-08-23T15:18:30.326Z,35.10
2022-08-23T15:20:57.832Z,35.40
2022-08-23T15:23:25.253Z,35.10
2022-08-23T15:25:52.810Z,35.50
2022-08-23T15:28:23.057Z,35.10
2022-08-23T15:30:51.490Z,35.00
2022-08-23T15:33:23.387Z,35.00
2022-08-23T15:35:53.302Z,35.00
2022-08-23T15:38:23.715Z,35.00
2022-08-23T15:40:53.154Z,35.00
2022-08-23T15:43:22.051Z,35.00
2022-08-23T15:45:50.873Z,34.90
2022-08-23T15:48:32.477Z,34.90
2022-08-23T15:51:00.253Z,34.90
2022-08-23T15:53:27.730Z,34.90
2022-08-23T15:55:55.216Z,34.90
2022-08-23T15:58:26.229Z,34.80
2022-08-23T16:00:54.468Z,34.80
2022-08-23T16:03:22.766Z,34.90
2022-08-23T16:05:52.450Z,34.80
2022-08-23T16:08:29.788Z,34.80
2022-08-23T16:10:58.588Z,34.80
2022-08-23T16:13:26.778Z,34.80
2022-08-23T16:15:55.049Z,34.80
2022-08-23T16:18:22.511Z,34.80
2022-08-23T16:20:49.954Z,34.80
2022-08-23T16:23:22.852Z,34.80
2022-08-23T16:25:50.478Z,34.80
2022-08-23T16:28:18.006Z,34.80
2022-08-23T16:30:45.373Z,34.80
2022-08-23T16:33:12.903Z,34.80
2022-08-23T16:35:40.325Z,34.80
2022-08-23T16:38:08.741Z,34.80
2022-08-23T16:40:36.058Z,34.80
2022-08-23T16:43:03.585Z,34.80
2022-08-23T16:45:31.225Z,35.00
2022-08-23T16:47:59.762Z,34.70
2022-08-23T16:50:27.553Z,34.70
2022-08-23T16:52:54.917Z,34.70
2022-08-23T16:55:23.142Z,34.90
2022-08-23T16:57:50.722Z,34.60
2022-08-23T17:00:18.194Z,34.60
2022-08-23T17:02:45.828Z,34.70
2022-08-23T17:05:17.235Z,34.60
2022-08-23T17:07:45.274Z,34.60
2022-08-23T17:10:15.573Z,34.60
2022-08-23T17:12:47.157Z,34.50
2022-08-23T17:15:21.070Z,34.50
2022-08-23T17:17:49.389Z,34.50
2022-08-23T17:20:18.012Z,34.50
2022-08-23T17:22:46.093Z,34.90
2022-08-23T17:25:15.397Z,34.40
2022-08-23T17:27:46.190Z,34.40
2022-08-23T17:30:17.422Z,34.40
2022-08-23T17:32:47.699Z,34.40
2022-08-23T17:35:17.667Z,34.40
2022-08-23T17:37:45.085Z,34.60
2022-08-23T17:40:26.833Z,34.30
2022-08-23T17:42:57.718Z,34.20
2022-08-23T17:45:25.115Z,34.40
2022-08-23T17:47:52.830Z,34.20
2022-08-23T17:50:20.573Z,34.10
2022-08-23T17:52:48.080Z,34.10
2022-08-23T17:55:17.298Z,34.00
2022-08-23T17:57:47.035Z,34.00
2022-08-23T18:00:17.370Z,33.90
2022-08-23T18:02:44.916Z,33.90
2022-08-23T18:05:13.246Z,33.80
2022-08-23T18:07:40.849Z,33.70
2022-08-23T18:10:11.888Z,33.70
2022-08-23T18:12:40.715Z,33.60
2022-08-23T18:15:09.453Z,33.50
2022-08-23T18:17:38.717Z,33.40
2022-08-23T18:20:09.550Z,33.40
2022-08-23T18:22:38.241Z,33.30
2022-08-23T18:25:10.462Z,33.20
2022-08-23T18:27:56.293Z,33.10
2022-08-23T18:30:24.035Z,33.00
2022-08-23T18:32:51.769Z,32.90
2022-08-23T18:35:19.749Z,32.80
2022-08-23T18:37:47.111Z,32.70
2022-08-23T18:40:14.778Z,32.60
2022-08-23T18:42:42.729Z,32.50
2022-08-23T18:45:10.572Z,32.50
2022-08-23T18:47:39.060Z,32.30
2022-08-23T18:50:08.976Z,32.30
2022-08-23T18:52:36.407Z,32.10
2022-08-23T18:55:05.370Z,32.00
2022-08-23T18:57:33.378Z,31.80
2022-08-23T19:00:00.761Z,31.80
2022-08-23T19:02:28.750Z,31.70
2022-08-23T19:04:57.622Z,31.50
2022-08-23T19:07:25.051Z,31.40
2022-08-23T19:09:52.426Z,31.40
2022-08-23T19:12:19.794Z,31.30
2022-08-23T19:14:47.196Z,31.20
2022-08-23T19:17:14.648Z,31.10
2022-08-23T19:19:41.965Z,31.00
2022-08-23T19:22:09.322Z,30.90
2022-08-23T19:24:36.651Z,31.30
2022-08-23T19:27:04.374Z,30.80
2022-08-23T19:29:32.007Z,30.70
2022-08-23T19:31:59.483Z,30.70
2022-08-23T19:34:27.287Z,31.20
2022-08-23T19:37:00.587Z,30.50
2022-08-23T19:39:29.520Z,30.40
2022-08-23T19:41:57.793Z,30.90
2022-08-23T19:44:25.172Z,30.30
2022-08-23T19:46:52.558Z,30.80
2022-08-23T19:49:19.875Z,30.10
2022-08-23T19:51:47.274Z,30.20
2022-08-23T19:54:15.053Z,30.00
2022-08-23T19:56:57.479Z,29.90
2022-08-23T19:59:38.570Z,29.70
2022-08-23T20:02:08.290Z,29.70
2022-08-23T20:04:36.872Z,29.60
2022-08-23T20:07:05.740Z,29.50
2022-08-23T20:09:40.293Z,29.40
2022-08-23T20:12:08.085Z,29.30
2022-08-23T20:14:35.708Z,29.20
2022-08-23T20:17:04.471Z,29.50
2022-08-23T20:19:32.349Z,29.10
2022-08-23T20:22:19.616Z,29.00
2022-08-23T20:24:52.945Z,29.40
2022-08-23T20:27:30.540Z,28.80
2022-08-23T20:30:01.240Z,28.70
2022-08-23T20:32:29.387Z,28.70
2022-08-23T20:34:57.918Z,28.60
2022-08-23T20:37:25.395Z,28.50
2022-08-23T20:39:55.961Z,28.40
2022-08-23T20:42:23.821Z,28.40
2022-08-23T20:44:51.180Z,28.30
2022-08-23T20:47:18.566Z,28.30
2022-08-23T20:49:46.351Z,28.30
2022-08-23T20:52:13.773Z,28.10
2022-08-23T20:54:41.119Z,28.10
2022-08-23T20:57:08.441Z,28.10
2022-08-23T20:59:35.981Z,28.40
2022-08-23T21:02:03.817Z,28.00
2022-08-23T21:04:31.281Z,27.90
2022-08-23T21:06:58.758Z,27.80
2022-08-23T21:09:29.500Z,27.80
2022-08-23T21:11:57.492Z,28.00
2022-08-23T21:14:24.991Z,27.70
2022-08-23T21:16:52.382Z,27.70
2022-08-23T21:19:19.865Z,27.90
2022-08-23T21:21:47.398Z,27.50
2022-08-23T21:24:15.382Z,27.50
2022-08-23T21:26:43.517Z,27.40
2022-08-23T21:29:11.083Z,27.30
2022-08-23T21:31:39.242Z,27.30
2022-08-23T21:34:08.146Z,27.30
2022-08-23T21:36:37.469Z,27.20
2022-08-23T21:39:05.662Z,27.20
2022-08-23T21:41:35.383Z,27.20
2022-08-23T21:44:06.771Z,27.10
2022-08-23T21:46:34.286Z,27.00
2022-08-23T21:49:01.899Z,26.90
2022-08-23T21:51:29.772Z,26.80
2022-08-23T21:53:57.590Z,26.80
2022-08-23T21:56:26.117Z,26.80
2022-08-23T21:58:58.513Z,26.70
2022-08-23T22:01:26.342Z,26.70
2022-08-23T22:03:57.054Z,26.70
2022-08-23T22:06:25.459Z,26.60
2022-08-23T22:08:52.941Z,27.10
2022-08-23T22:11:23.903Z,26.50
2022-08-23T22:13:53.654Z,26.50
2022-08-23T22:16:21.639Z,26.80
2022-08-23T22:18:50.033Z,26.80
2022-08-23T22:21:17.427Z,26.90
2022-08-23T22:23:44.941Z,26.30
2022-08-23T22:26:13.854Z,26.50
2022-08-23T22:28:44.549Z,26.70
2022-08-23T22:31:15.116Z,26.30
2022-08-23T22:33:44.215Z,26.30
2022-08-23T22:36:16.889Z,26.30
2022-08-23T22:38:45.376Z,26.90
2022-08-23T22:41:23.915Z,26.30
2022-08-23T22:44:03.296Z,26.40
2022-08-23T22:46:33.511Z,26.40
2022-08-23T22:49:01.726Z,26.30
2022-08-23T22:51:34.440Z,27.00
2022-08-23T22:54:06.879Z,26.30
2022-08-23T22:56:45.071Z,26.30
2022-08-23T22:59:14.379Z,26.20
2022-08-23T23:01:49.735Z,26.20
2022-08-23T23:04:19.570Z,26.20
2022-08-23T23:06:48.865Z,26.80
2022-08-23T23:09:17.058Z,26.20
2022-08-23T23:11:45.862Z,26.60
2022-08-23T23:14:14.994Z,26.20
2022-08-23T23:16:44.471Z,26.50
2022-08-23T23:19:31.283Z,26.10
2022-08-23T23:21:58.868Z,26.60
2022-08-23T23:24:32.941Z,26.00
2022-08-23T23:27:01.609Z,26.00
2022-08-23T23:29:30.035Z,26.00
2022-08-23T23:31:57.918Z,25.90
2022-08-23T23:34:27.818Z,25.90
2022-08-23T23:36:58.969Z,25.90
2022-08-23T23:39:27.904Z,25.90
2022-08-23T23:41:56.058Z,26.00
2022-08-23T23:44:31.110Z,25.80
2022-08-23T23:47:01.443Z,25.80
2022-08-23T23:49:32.440Z,26.10
2022-08-23T23:52:03.185Z,26.20
2022-08-23T23:54:31.587Z,26.10
2022-08-23T23:56:59.142Z,26.30
2022-08-23T23:59:26.698Z,25.80
